This is the latest recevied weather packets stored in our database for station/object EFOU. If no packets are shown the sender has not sent any weather packets the latest 1 day(s).
| Time | Temp. | Humidity | Pressure | Rain* | Wind** | Luminosity | Snow |
|---|---|---|---|---|---|---|---|
| 1778126842 | 1.11° C | 87% | 1014.3 hPa | - | - | - | - |
| 1778125642 | 0° C | 89% | 1014 hPa | - | - | - | - |
| 1778122250 | -0.56° C | 91% | 1013.6 hPa | - | - | - | - |
| 1778120841 | -1.11° C | 92% | 1013.6 hPa | - | - | - | - |
| 1778119641 | -1.11° C | 93% | 1013.7 hPa | - | - | - | - |
| 1778118441 | -1.11° C | 92% | 1013.6 hPa | - | - | - | - |
| 1778117241 | -1.11° C | 94% | 1013.4 hPa | - | - | - | - |
| 1778116041 | -1.11° C | 94% | 1013.5 hPa | - | - | - | - |
| 1778114841 | -0.56° C | 94% | 1013.4 hPa | - | - | - | - |
| 1778113641 | -0.56° C | 93% | 1013.3 hPa | - | - | - | - |
| 1778110041 | -0.56° C | 95% | 1013.1 hPa | - | - | - | - |
| 1778106441 | -0.56° C | 94% | 1012.9 hPa | - | - | - | - |
| 1778100440 | 1.67° C | 90% | 1012.8 hPa | - | - | - | - |
| 1778096840 | 1.67° C | 90% | 1012.5 hPa | - | - | - | - |
| 1778094440 | 3.89° C | 81% | 1012.4 hPa | - | - | - | - |
| 1778092040 | 3.89° C | 77% | 1012 hPa | - | - | - | - |
| 1778089640 | 4.44° C | 82% | 1011.7 hPa | - | - | - | - |
| 1778087239 | 4.44° C | 79% | 1011.3 hPa | - | - | - | - |
| 1778084839 | 5° C | 76% | 1011 hPa | - | - | - | - |
| 1778082439 | 5.56° C | 74% | 1010.7 hPa | - | - | - | - |
| 1778081239 | 5.56° C | 73% | 1010.6 hPa | - | - | - | - |
| 1778074039 | 6.11° C | 70% | 1009.4 hPa | - | - | - | - |
| 1778072838 | 5° C | 76% | 1009.2 hPa | - | - | - | - |
| 1778071638 | 5° C | 77% | 1009 hPa | - | - | - | - |
| 1778070438 | 5° C | 78% | 1008.7 hPa | - | - | - | - |
* Rain since midnight (hover to see other rain measurements)
** Current wind speed in m/s (hover to see current wind gust speed)